sensor_id;sensor_type;location;lat;lon;timestamp;P1;durP1;ratioP1;P2;durP2;ratioP2
26113;SDS011;13966;48.828;9.064;2023-06-10T00:01:06;11.68;;;8.38;;
26113;SDS011;13966;48.828;9.064;2023-06-10T00:03:32;9.73;;;7.78;;
26113;SDS011;13966;48.828;9.064;2023-06-10T00:05:58;11.63;;;8.35;;
26113;SDS011;13966;48.828;9.064;2023-06-10T00:08:23;9.60;;;8.00;;
26113;SDS011;13966;48.828;9.064;2023-06-10T00:10:50;9.80;;;7.90;;
26113;SDS011;13966;48.828;9.064;2023-06-10T00:13:16;11.25;;;8.40;;
26113;SDS011;13966;48.828;9.064;2023-06-10T00:15:42;9.70;;;8.18;;
26113;SDS011;13966;48.828;9.064;2023-06-10T00:18:08;9.60;;;8.10;;
26113;SDS011;13966;48.828;9.064;2023-06-10T00:20:35;11.50;;;8.13;;
26113;SDS011;13966;48.828;9.064;2023-06-10T00:23:02;9.52;;;7.57;;
26113;SDS011;13966;48.828;9.064;2023-06-10T00:25:31;9.57;;;8.27;;
26113;SDS011;13966;48.828;9.064;2023-06-10T00:27:58;10.13;;;9.13;;
26113;SDS011;13966;48.828;9.064;2023-06-10T00:30:24;10.18;;;8.68;;
26113;SDS011;13966;48.828;9.064;2023-06-10T00:32:50;11.00;;;8.73;;
26113;SDS011;13966;48.828;9.064;2023-06-10T00:35:16;11.30;;;9.23;;
26113;SDS011;13966;48.828;9.064;2023-06-10T00:37:42;10.15;;;8.57;;
26113;SDS011;13966;48.828;9.064;2023-06-10T00:40:08;11.82;;;9.57;;
26113;SDS011;13966;48.828;9.064;2023-06-10T00:42:34;12.40;;;9.90;;
26113;SDS011;13966;48.828;9.064;2023-06-10T00:45:00;10.07;;;9.07;;
26113;SDS011;13966;48.828;9.064;2023-06-10T00:47:27;12.40;;;8.52;;
26113;SDS011;13966;48.828;9.064;2023-06-10T00:49:53;11.10;;;9.10;;
26113;SDS011;13966;48.828;9.064;2023-06-10T00:52:19;15.68;;;9.60;;
26113;SDS011;13966;48.828;9.064;2023-06-10T00:54:45;13.93;;;9.70;;
26113;SDS011;13966;48.828;9.064;2023-06-10T00:57:11;10.48;;;9.38;;
26113;SDS011;13966;48.828;9.064;2023-06-10T00:59:41;10.95;;;9.00;;
26113;SDS011;13966;48.828;9.064;2023-06-10T01:02:08;10.55;;;9.50;;
26113;SDS011;13966;48.828;9.064;2023-06-10T01:04:35;10.95;;;9.75;;
26113;SDS011;13966;48.828;9.064;2023-06-10T01:15:01;10.68;;;8.95;;
26113;SDS011;13966;48.828;9.064;2023-06-10T01:17:29;10.27;;;9.07;;
26113;SDS011;13966;48.828;9.064;2023-06-10T01:19:58;10.30;;;9.05;;
26113;SDS011;13966;48.828;9.064;2023-06-10T01:22:24;11.93;;;9.18;;
26113;SDS011;13966;48.828;9.064;2023-06-10T01:24:53;11.25;;;9.43;;
26113;SDS011;13966;48.828;9.064;2023-06-10T01:27:19;9.80;;;8.80;;
26113;SDS011;13966;48.828;9.064;2023-06-10T01:29:50;11.30;;;8.93;;
26113;SDS011;13966;48.828;9.064;2023-06-10T01:32:21;10.77;;;9.18;;
26113;SDS011;13966;48.828;9.064;2023-06-10T01:34:47;11.40;;;9.23;;
26113;SDS011;13966;48.828;9.064;2023-06-10T01:37:15;10.60;;;9.50;;
26113;SDS011;13966;48.828;9.064;2023-06-10T01:39:42;12.40;;;9.25;;
26113;SDS011;13966;48.828;9.064;2023-06-10T01:42:09;12.82;;;9.50;;
26113;SDS011;13966;48.828;9.064;2023-06-10T01:44:35;10.13;;;8.75;;
26113;SDS011;13966;48.828;9.064;2023-06-10T01:47:01;10.80;;;9.63;;
26113;SDS011;13966;48.828;9.064;2023-06-10T01:49:27;14.23;;;9.85;;
26113;SDS011;13966;48.828;9.064;2023-06-10T01:51:53;10.43;;;9.05;;
26113;SDS011;13966;48.828;9.064;2023-06-10T01:54:20;11.50;;;9.38;;
26113;SDS011;13966;48.828;9.064;2023-06-10T01:56:46;10.35;;;9.18;;
26113;SDS011;13966;48.828;9.064;2023-06-10T01:59:12;11.55;;;9.70;;
26113;SDS011;13966;48.828;9.064;2023-06-10T02:01:38;10.48;;;9.38;;
26113;SDS011;13966;48.828;9.064;2023-06-10T02:04:04;10.93;;;9.68;;
26113;SDS011;13966;48.828;9.064;2023-06-10T02:06:30;11.00;;;9.90;;
26113;SDS011;13966;48.828;9.064;2023-06-10T02:08:56;13.07;;;10.32;;
26113;SDS011;13966;48.828;9.064;2023-06-10T02:11:22;10.88;;;9.77;;
26113;SDS011;13966;48.828;9.064;2023-06-10T02:13:48;10.82;;;9.73;;
26113;SDS011;13966;48.828;9.064;2023-06-10T02:16:14;12.27;;;9.82;;
26113;SDS011;13966;48.828;9.064;2023-06-10T02:18:41;14.63;;;10.40;;
26113;SDS011;13966;48.828;9.064;2023-06-10T02:21:11;14.48;;;10.13;;
26113;SDS011;13966;48.828;9.064;2023-06-10T02:23:37;11.45;;;9.65;;
26113;SDS011;13966;48.828;9.064;2023-06-10T02:26:03;10.90;;;9.80;;
26113;SDS011;13966;48.828;9.064;2023-06-10T02:28:29;15.32;;;10.40;;
26113;SDS011;13966;48.828;9.064;2023-06-10T02:30:55;13.68;;;10.85;;
26113;SDS011;13966;48.828;9.064;2023-06-10T02:33:22;15.30;;;10.55;;
26113;SDS011;13966;48.828;9.064;2023-06-10T02:35:49;12.95;;;10.23;;
26113;SDS011;13966;48.828;9.064;2023-06-10T02:38:15;13.35;;;9.85;;
26113;SDS011;13966;48.828;9.064;2023-06-10T02:40:42;13.10;;;10.75;;
26113;SDS011;13966;48.828;9.064;2023-06-10T02:43:08;12.70;;;10.85;;
26113;SDS011;13966;48.828;9.064;2023-06-10T02:45:34;13.65;;;10.18;;
26113;SDS011;13966;48.828;9.064;2023-06-10T02:48:00;13.52;;;10.18;;
26113;SDS011;13966;48.828;9.064;2023-06-10T02:50:26;12.88;;;9.73;;
26113;SDS011;13966;48.828;9.064;2023-06-10T02:52:52;16.80;;;10.77;;
26113;SDS011;13966;48.828;9.064;2023-06-10T02:55:18;11.55;;;9.35;;
26113;SDS011;13966;48.828;9.064;2023-06-10T02:57:45;13.07;;;9.80;;
26113;SDS011;13966;48.828;9.064;2023-06-10T03:00:11;11.63;;;9.80;;
26113;SDS011;13966;48.828;9.064;2023-06-10T03:02:39;17.10;;;9.90;;
26113;SDS011;13966;48.828;9.064;2023-06-10T03:05:05;14.45;;;9.98;;
26113;SDS011;13966;48.828;9.064;2023-06-10T03:07:35;12.65;;;9.35;;
26113;SDS011;13966;48.828;9.064;2023-06-10T03:10:01;11.18;;;9.60;;
26113;SDS011;13966;48.828;9.064;2023-06-10T03:12:27;11.68;;;9.95;;
26113;SDS011;13966;48.828;9.064;2023-06-10T03:14:53;11.52;;;9.55;;
26113;SDS011;13966;48.828;9.064;2023-06-10T03:17:19;11.65;;;9.52;;
26113;SDS011;13966;48.828;9.064;2023-06-10T03:19:46;12.07;;;9.43;;
26113;SDS011;13966;48.828;9.064;2023-06-10T03:22:15;11.88;;;10.55;;
26113;SDS011;13966;48.828;9.064;2023-06-10T03:24:41;12.25;;;9.88;;
26113;SDS011;13966;48.828;9.064;2023-06-10T03:27:11;13.27;;;10.50;;
26113;SDS011;13966;48.828;9.064;2023-06-10T03:29:38;11.15;;;9.95;;
26113;SDS011;13966;48.828;9.064;2023-06-10T03:32:04;13.05;;;10.35;;
26113;SDS011;13966;48.828;9.064;2023-06-10T03:34:31;13.10;;;9.70;;
26113;SDS011;13966;48.828;9.064;2023-06-10T03:36:57;12.57;;;9.32;;
26113;SDS011;13966;48.828;9.064;2023-06-10T03:39:23;13.77;;;10.80;;
26113;SDS011;13966;48.828;9.064;2023-06-10T03:41:49;12.80;;;10.23;;
26113;SDS011;13966;48.828;9.064;2023-06-10T03:44:16;11.27;;;9.65;;
26113;SDS011;13966;48.828;9.064;2023-06-10T03:46:42;14.18;;;10.45;;
26113;SDS011;13966;48.828;9.064;2023-06-10T03:49:08;12.60;;;10.75;;
26113;SDS011;13966;48.828;9.064;2023-06-10T03:51:35;12.25;;;9.30;;
26113;SDS011;13966;48.828;9.064;2023-06-10T03:54:01;12.65;;;10.15;;
26113;SDS011;13966;48.828;9.064;2023-06-10T03:56:27;12.13;;;9.68;;
26113;SDS011;13966;48.828;9.064;2023-06-10T03:58:53;13.35;;;10.30;;
26113;SDS011;13966;48.828;9.064;2023-06-10T04:01:20;11.93;;;10.20;;
26113;SDS011;13966;48.828;9.064;2023-06-10T04:03:49;11.07;;;9.25;;
26113;SDS011;13966;48.828;9.064;2023-06-10T04:06:16;12.55;;;9.75;;
26113;SDS011;13966;48.828;9.064;2023-06-10T04:08:42;13.98;;;10.05;;
26113;SDS011;13966;48.828;9.064;2023-06-10T04:11:08;13.85;;;9.90;;
26113;SDS011;13966;48.828;9.064;2023-06-10T04:13:34;15.40;;;10.10;;
26113;SDS011;13966;48.828;9.064;2023-06-10T04:16:01;12.70;;;10.27;;
26113;SDS011;13966;48.828;9.064;2023-06-10T04:18:28;13.40;;;9.35;;
26113;SDS011;13966;48.828;9.064;2023-06-10T04:20:54;14.32;;;10.20;;
26113;SDS011;13966;48.828;9.064;2023-06-10T04:23:20;14.65;;;9.40;;
26113;SDS011;13966;48.828;9.064;2023-06-10T04:25:46;11.25;;;9.13;;
26113;SDS011;13966;48.828;9.064;2023-06-10T04:28:12;11.25;;;10.05;;
26113;SDS011;13966;48.828;9.064;2023-06-10T04:30:38;11.55;;;9.65;;
26113;SDS011;13966;48.828;9.064;2023-06-10T04:33:04;10.20;;;9.20;;
26113;SDS011;13966;48.828;9.064;2023-06-10T04:35:31;14.38;;;10.30;;
26113;SDS011;13966;48.828;9.064;2023-06-10T04:37:58;12.68;;;9.90;;
26113;SDS011;13966;48.828;9.064;2023-06-10T04:40:24;16.10;;;10.63;;
26113;SDS011;13966;48.828;9.064;2023-06-10T04:42:50;12.75;;;9.43;;
26113;SDS011;13966;48.828;9.064;2023-06-10T04:45:16;12.52;;;10.27;;
26113;SDS011;13966;48.828;9.064;2023-06-10T04:47:42;12.35;;;10.27;;
26113;SDS011;13966;48.828;9.064;2023-06-10T04:50:08;12.43;;;9.98;;
26113;SDS011;13966;48.828;9.064;2023-06-10T04:52:34;12.57;;;9.77;;
26113;SDS011;13966;48.828;9.064;2023-06-10T04:55:00;11.77;;;8.88;;
26113;SDS011;13966;48.828;9.064;2023-06-10T04:57:27;10.95;;;9.40;;
26113;SDS011;13966;48.828;9.064;2023-06-10T04:59:53;13.52;;;10.23;;
26113;SDS011;13966;48.828;9.064;2023-06-10T05:02:19;12.68;;;10.05;;
26113;SDS011;13966;48.828;9.064;2023-06-10T05:04:45;11.18;;;9.23;;
26113;SDS011;13966;48.828;9.064;2023-06-10T05:07:11;15.82;;;10.77;;
26113;SDS011;13966;48.828;9.064;2023-06-10T05:09:37;11.07;;;9.43;;
26113;SDS011;13966;48.828;9.064;2023-06-10T05:12:04;12.13;;;8.85;;
26113;SDS011;13966;48.828;9.064;2023-06-10T05:14:30;11.25;;;9.75;;
26113;SDS011;13966;48.828;9.064;2023-06-10T05:16:56;10.77;;;9.68;;
26113;SDS011;13966;48.828;9.064;2023-06-10T05:19:22;12.52;;;9.50;;
26113;SDS011;13966;48.828;9.064;2023-06-10T05:21:48;10.95;;;9.15;;
26113;SDS011;13966;48.828;9.064;2023-06-10T05:24:14;10.50;;;8.63;;
26113;SDS011;13966;48.828;9.064;2023-06-10T05:26:40;10.98;;;8.88;;
26113;SDS011;13966;48.828;9.064;2023-06-10T05:29:07;14.15;;;8.63;;
26113;SDS011;13966;48.828;9.064;2023-06-10T05:31:36;11.57;;;8.48;;
26113;SDS011;13966;48.828;9.064;2023-06-10T05:34:02;9.07;;;8.13;;
26113;SDS011;13966;48.828;9.064;2023-06-10T05:36:28;9.45;;;7.90;;
26113;SDS011;13966;48.828;9.064;2023-06-10T05:38:54;11.82;;;7.65;;
26113;SDS011;13966;48.828;9.064;2023-06-10T05:41:20;10.45;;;7.60;;
26113;SDS011;13966;48.828;9.064;2023-06-10T05:43:47;8.65;;;7.75;;
26113;SDS011;13966;48.828;9.064;2023-06-10T05:46:13;8.95;;;7.45;;
26113;SDS011;13966;48.828;9.064;2023-06-10T05:48:39;8.13;;;7.32;;
26113;SDS011;13966;48.828;9.064;2023-06-10T05:51:05;11.07;;;6.80;;
26113;SDS011;13966;48.828;9.064;2023-06-10T05:53:31;8.05;;;6.57;;
26113;SDS011;13966;48.828;9.064;2023-06-10T05:55:57;7.55;;;6.75;;
26113;SDS011;13966;48.828;9.064;2023-06-10T05:58:24;7.88;;;6.90;;
26113;SDS011;13966;48.828;9.064;2023-06-10T06:00:50;8.05;;;6.40;;
26113;SDS011;13966;48.828;9.064;2023-06-10T06:03:17;7.38;;;6.57;;
26113;SDS011;13966;48.828;9.064;2023-06-10T06:05:43;8.93;;;6.22;;
26113;SDS011;13966;48.828;9.064;2023-06-10T06:08:09;7.50;;;6.70;;
26113;SDS011;13966;48.828;9.064;2023-06-10T06:10:35;9.40;;;6.80;;
26113;SDS011;13966;48.828;9.064;2023-06-10T06:13:01;8.13;;;6.85;;
26113;SDS011;13966;48.828;9.064;2023-06-10T06:15:28;9.52;;;7.40;;
26113;SDS011;13966;48.828;9.064;2023-06-10T06:17:54;8.52;;;6.90;;
26113;SDS011;13966;48.828;9.064;2023-06-10T06:20:21;8.27;;;6.65;;
26113;SDS011;13966;48.828;9.064;2023-06-10T06:22:47;8.40;;;6.90;;
26113;SDS011;13966;48.828;9.064;2023-06-10T06:25:13;6.72;;;5.63;;
26113;SDS011;13966;48.828;9.064;2023-06-10T06:27:39;8.43;;;5.22;;
26113;SDS011;13966;48.828;9.064;2023-06-10T06:30:05;6.28;;;5.40;;
26113;SDS011;13966;48.828;9.064;2023-06-10T06:32:31;5.93;;;4.85;;
26113;SDS011;13966;48.828;9.064;2023-06-10T06:34:57;5.63;;;5.00;;
26113;SDS011;13966;48.828;9.064;2023-06-10T06:37:24;9.25;;;5.88;;
26113;SDS011;13966;48.828;9.064;2023-06-10T06:39:51;6.82;;;5.43;;
26113;SDS011;13966;48.828;9.064;2023-06-10T06:42:17;7.13;;;5.47;;
26113;SDS011;13966;48.828;9.064;2023-06-10T06:44:43;8.52;;;5.10;;
26113;SDS011;13966;48.828;9.064;2023-06-10T06:47:09;6.97;;;5.20;;
26113;SDS011;13966;48.828;9.064;2023-06-10T06:49:35;6.18;;;5.05;;
26113;SDS011;13966;48.828;9.064;2023-06-10T06:52:01;5.10;;;4.60;;
26113;SDS011;13966;48.828;9.064;2023-06-10T06:54:27;5.47;;;4.97;;
26113;SDS011;13966;48.828;9.064;2023-06-10T06:56:54;4.85;;;4.45;;
26113;SDS011;13966;48.828;9.064;2023-06-10T06:59:20;5.60;;;4.82;;
26113;SDS011;13966;48.828;9.064;2023-06-10T07:01:46;5.90;;;4.80;;
26113;SDS011;13966;48.828;9.064;2023-06-10T07:04:14;5.90;;;4.60;;
26113;SDS011;13966;48.828;9.064;2023-06-10T07:06:40;8.48;;;4.30;;
26113;SDS011;13966;48.828;9.064;2023-06-10T07:09:06;6.30;;;4.82;;
26113;SDS011;13966;48.828;9.064;2023-06-10T07:11:34;5.97;;;4.57;;
26113;SDS011;13966;48.828;9.064;2023-06-10T07:14:00;5.47;;;4.80;;
26113;SDS011;13966;48.828;9.064;2023-06-10T07:16:26;5.50;;;4.82;;
26113;SDS011;13966;48.828;9.064;2023-06-10T07:18:52;9.50;;;5.38;;
26113;SDS011;13966;48.828;9.064;2023-06-10T07:21:18;6.10;;;5.28;;
26113;SDS011;13966;48.828;9.064;2023-06-10T07:23:44;8.32;;;5.20;;
26113;SDS011;13966;48.828;9.064;2023-06-10T07:26:11;5.72;;;4.95;;
26113;SDS011;13966;48.828;9.064;2023-06-10T07:28:38;7.05;;;4.93;;
26113;SDS011;13966;48.828;9.064;2023-06-10T07:31:04;6.72;;;4.97;;
26113;SDS011;13966;48.828;9.064;2023-06-10T07:33:30;5.68;;;5.10;;
26113;SDS011;13966;48.828;9.064;2023-06-10T07:35:56;6.53;;;4.70;;
26113;SDS011;13966;48.828;9.064;2023-06-10T07:38:22;4.60;;;4.03;;
26113;SDS011;13966;48.828;9.064;2023-06-10T07:40:48;6.53;;;4.95;;
26113;SDS011;13966;48.828;9.064;2023-06-10T07:43:14;5.55;;;4.40;;
26113;SDS011;13966;48.828;9.064;2023-06-10T07:45:40;6.97;;;4.82;;
26113;SDS011;13966;48.828;9.064;2023-06-10T07:48:06;5.82;;;4.50;;
26113;SDS011;13966;48.828;9.064;2023-06-10T07:50:33;4.85;;;4.18;;
26113;SDS011;13966;48.828;9.064;2023-06-10T07:52:59;4.90;;;4.40;;
26113;SDS011;13966;48.828;9.064;2023-06-10T07:55:25;4.90;;;4.40;;
26113;SDS011;13966;48.828;9.064;2023-06-10T07:57:51;7.05;;;4.22;;
26113;SDS011;13966;48.828;9.064;2023-06-10T08:00:17;5.60;;;4.30;;
26113;SDS011;13966;48.828;9.064;2023-06-10T08:02:43;5.75;;;4.25;;
26113;SDS011;13966;48.828;9.064;2023-06-10T08:05:10;5.45;;;4.88;;
26113;SDS011;13966;48.828;9.064;2023-06-10T08:07:36;6.05;;;3.97;;
26113;SDS011;13966;48.828;9.064;2023-06-10T08:10:02;5.40;;;4.07;;
26113;SDS011;13966;48.828;9.064;2023-06-10T08:12:29;5.45;;;4.18;;
26113;SDS011;13966;48.828;9.064;2023-06-10T08:14:55;5.03;;;4.50;;
26113;SDS011;13966;48.828;9.064;2023-06-10T08:17:21;5.72;;;4.63;;
26113;SDS011;13966;48.828;9.064;2023-06-10T08:19:47;4.70;;;4.18;;
26113;SDS011;13966;48.828;9.064;2023-06-10T08:22:13;6.93;;;4.80;;
26113;SDS011;13966;48.828;9.064;2023-06-10T08:24:39;5.90;;;4.22;;
26113;SDS011;13966;48.828;9.064;2023-06-10T08:27:06;5.10;;;4.25;;
26113;SDS011;13966;48.828;9.064;2023-06-10T08:29:32;5.07;;;3.95;;
26113;SDS011;13966;48.828;9.064;2023-06-10T08:31:58;5.18;;;4.30;;
26113;SDS011;13966;48.828;9.064;2023-06-10T08:34:24;5.93;;;4.43;;
26113;SDS011;13966;48.828;9.064;2023-06-10T08:36:52;5.10;;;4.30;;
26113;SDS011;13966;48.828;9.064;2023-06-10T08:39:20;5.60;;;4.40;;
26113;SDS011;13966;48.828;9.064;2023-06-10T08:44:28;9.45;;;4.25;;
26113;SDS011;13966;48.828;9.064;2023-06-10T08:46:58;4.22;;;3.83;;
26113;SDS011;13966;48.828;9.064;2023-06-10T08:49:26;8.27;;;3.72;;
26113;SDS011;13966;48.828;9.064;2023-06-10T08:51:55;6.60;;;4.53;;
26113;SDS011;13966;48.828;9.064;2023-06-10T08:54:25;5.10;;;4.10;;
26113;SDS011;13966;48.828;9.064;2023-06-10T08:56:53;5.97;;;4.22;;
26113;SDS011;13966;48.828;9.064;2023-06-10T08:59:19;5.10;;;4.28;;
26113;SDS011;13966;48.828;9.064;2023-06-10T09:01:46;4.85;;;4.45;;
26113;SDS011;13966;48.828;9.064;2023-06-10T09:04:12;6.05;;;4.05;;
26113;SDS011;13966;48.828;9.064;2023-06-10T09:06:39;6.20;;;4.43;;
26113;SDS011;13966;48.828;9.064;2023-06-10T09:09:06;5.47;;;4.30;;
26113;SDS011;13966;48.828;9.064;2023-06-10T09:11:32;4.88;;;4.10;;
26113;SDS011;13966;48.828;9.064;2023-06-10T09:13:59;9.65;;;4.28;;
26113;SDS011;13966;48.828;9.064;2023-06-10T09:16:25;5.03;;;4.28;;
26113;SDS011;13966;48.828;9.064;2023-06-10T09:18:51;4.30;;;3.80;;
26113;SDS011;13966;48.828;9.064;2023-06-10T09:21:23;5.10;;;4.10;;
26113;SDS011;13966;48.828;9.064;2023-06-10T09:23:49;4.88;;;4.35;;
26113;SDS011;13966;48.828;9.064;2023-06-10T09:26:15;4.57;;;4.18;;
26113;SDS011;13966;48.828;9.064;2023-06-10T09:28:44;5.80;;;4.10;;
26113;SDS011;13966;48.828;9.064;2023-06-10T09:31:10;4.70;;;3.72;;
26113;SDS011;13966;48.828;9.064;2023-06-10T09:33:38;3.90;;;3.42;;
26113;SDS011;13966;48.828;9.064;2023-06-10T09:36:04;4.53;;;4.13;;
26113;SDS011;13966;48.828;9.064;2023-06-10T09:38:31;5.53;;;3.70;;
26113;SDS011;13966;48.828;9.064;2023-06-10T09:40:57;5.88;;;3.85;;
26113;SDS011;13966;48.828;9.064;2023-06-10T09:43:23;5.43;;;3.75;;
26113;SDS011;13966;48.828;9.064;2023-06-10T09:46:03;5.60;;;3.80;;
26113;SDS011;13966;48.828;9.064;2023-06-10T09:48:29;4.25;;;3.58;;
26113;SDS011;13966;48.828;9.064;2023-06-10T09:50:55;5.43;;;3.55;;
26113;SDS011;13966;48.828;9.064;2023-06-10T09:53:21;3.90;;;3.60;;
26113;SDS011;13966;48.828;9.064;2023-06-10T09:55:47;4.03;;;3.63;;
26113;SDS011;13966;48.828;9.064;2023-06-10T09:58:14;3.33;;;3.03;;
26113;SDS011;13966;48.828;9.064;2023-06-10T10:00:40;4.97;;;3.85;;
26113;SDS011;13966;48.828;9.064;2023-06-10T10:03:06;4.05;;;3.08;;
26113;SDS011;13966;48.828;9.064;2023-06-10T10:05:32;4.15;;;3.28;;
26113;SDS011;13966;48.828;9.064;2023-06-10T10:07:58;3.47;;;3.17;;
26113;SDS011;13966;48.828;9.064;2023-06-10T10:10:24;3.33;;;3.00;;
26113;SDS011;13966;48.828;9.064;2023-06-10T10:12:53;6.07;;;3.40;;
26113;SDS011;13966;48.828;9.064;2023-06-10T10:15:21;4.53;;;3.40;;
26113;SDS011;13966;48.828;9.064;2023-06-10T10:20:27;3.50;;;3.20;;
26113;SDS011;13966;48.828;9.064;2023-06-10T10:22:58;3.95;;;3.30;;
26113;SDS011;13966;48.828;9.064;2023-06-10T10:25:40;6.45;;;3.50;;
26113;SDS011;13966;48.828;9.064;2023-06-10T10:28:10;4.97;;;3.70;;
26113;SDS011;13966;48.828;9.064;2023-06-10T10:30:40;4.97;;;3.40;;
26113;SDS011;13966;48.828;9.064;2023-06-10T10:33:09;3.75;;;3.40;;
26113;SDS011;13966;48.828;9.064;2023-06-10T10:38:06;3.70;;;3.00;;
26113;SDS011;13966;48.828;9.064;2023-06-10T10:40:32;3.60;;;3.30;;
26113;SDS011;13966;48.828;9.064;2023-06-10T10:42:59;3.40;;;3.10;;
26113;SDS011;13966;48.828;9.064;2023-06-10T10:45:27;3.45;;;3.05;;
26113;SDS011;13966;48.828;9.064;2023-06-10T10:47:53;4.25;;;3.25;;
26113;SDS011;13966;48.828;9.064;2023-06-10T10:50:22;7.90;;;3.38;;
26113;SDS011;13966;48.828;9.064;2023-06-10T10:52:53;6.75;;;3.70;;
26113;SDS011;13966;48.828;9.064;2023-06-10T10:55:20;4.50;;;3.25;;
26113;SDS011;13966;48.828;9.064;2023-06-10T10:57:53;3.55;;;3.20;;
26113;SDS011;13966;48.828;9.064;2023-06-10T11:00:35;4.10;;;2.97;;
26113;SDS011;13966;48.828;9.064;2023-06-10T11:05:35;3.30;;;3.00;;
26113;SDS011;13966;48.828;9.064;2023-06-10T11:08:05;3.45;;;3.03;;
26113;SDS011;13966;48.828;9.064;2023-06-10T11:10:35;6.07;;;3.03;;
26113;SDS011;13966;48.828;9.064;2023-06-10T11:13:14;3.33;;;3.00;;
26113;SDS011;13966;48.828;9.064;2023-06-10T11:15:50;4.72;;;2.95;;
26113;SDS011;13966;48.828;9.064;2023-06-10T11:18:20;5.13;;;2.92;;
26113;SDS011;13966;48.828;9.064;2023-06-10T11:25:51;3.55;;;3.03;;
26113;SDS011;13966;48.828;9.064;2023-06-10T11:28:17;3.58;;;3.10;;
26113;SDS011;13966;48.828;9.064;2023-06-10T11:30:44;4.28;;;2.58;;
26113;SDS011;13966;48.828;9.064;2023-06-10T11:33:13;3.40;;;2.78;;
26113;SDS011;13966;48.828;9.064;2023-06-10T11:35:40;4.50;;;2.83;;
26113;SDS011;13966;48.828;9.064;2023-06-10T11:38:06;2.92;;;2.60;;
26113;SDS011;13966;48.828;9.064;2023-06-10T11:40:32;4.35;;;3.05;;
26113;SDS011;13966;48.828;9.064;2023-06-10T11:42:59;5.70;;;2.67;;
26113;SDS011;13966;48.828;9.064;2023-06-10T11:45:25;3.35;;;2.50;;
26113;SDS011;13966;48.828;9.064;2023-06-10T11:47:57;3.45;;;2.10;;
26113;SDS011;13966;48.828;9.064;2023-06-10T11:50:27;3.53;;;2.20;;
26113;SDS011;13966;48.828;9.064;2023-06-10T11:52:53;4.50;;;2.30;;
26113;SDS011;13966;48.828;9.064;2023-06-10T11:55:20;2.88;;;2.00;;
26113;SDS011;13966;48.828;9.064;2023-06-10T11:57:46;3.80;;;2.33;;
26113;SDS011;13966;48.828;9.064;2023-06-10T12:00:14;3.33;;;2.30;;
26113;SDS011;13966;48.828;9.064;2023-06-10T12:02:40;2.60;;;2.40;;
26113;SDS011;13966;48.828;9.064;2023-06-10T12:05:10;4.47;;;2.20;;
26113;SDS011;13966;48.828;9.064;2023-06-10T12:07:36;2.40;;;2.20;;
26113;SDS011;13966;48.828;9.064;2023-06-10T12:10:02;3.67;;;2.38;;
26113;SDS011;13966;48.828;9.064;2023-06-10T12:12:28;5.03;;;2.20;;
26113;SDS011;13966;48.828;9.064;2023-06-10T12:14:55;3.10;;;2.10;;
26113;SDS011;13966;48.828;9.064;2023-06-10T12:17:22;2.47;;;2.28;;
26113;SDS011;13966;48.828;9.064;2023-06-10T12:19:49;3.20;;;1.95;;
26113;SDS011;13966;48.828;9.064;2023-06-10T12:22:15;2.63;;;2.00;;
26113;SDS011;13966;48.828;9.064;2023-06-10T12:25:05;4.75;;;2.10;;
26113;SDS011;13966;48.828;9.064;2023-06-10T12:27:32;2.47;;;2.20;;
26113;SDS011;13966;48.828;9.064;2023-06-10T12:29:58;1.92;;;1.83;;
26113;SDS011;13966;48.828;9.064;2023-06-10T12:32:35;2.20;;;2.00;;
26113;SDS011;13966;48.828;9.064;2023-06-10T12:35:02;2.63;;;2.42;;
26113;SDS011;13966;48.828;9.064;2023-06-10T12:37:29;2.22;;;2.03;;
26113;SDS011;13966;48.828;9.064;2023-06-10T12:39:58;4.10;;;2.00;;
26113;SDS011;13966;48.828;9.064;2023-06-10T12:42:25;2.95;;;1.80;;
26113;SDS011;13966;48.828;9.064;2023-06-10T12:44:54;2.30;;;1.83;;
26113;SDS011;13966;48.828;9.064;2023-06-10T12:47:28;5.32;;;2.10;;
26113;SDS011;13966;48.828;9.064;2023-06-10T12:49:56;2.35;;;1.92;;
26113;SDS011;13966;48.828;9.064;2023-06-10T12:52:23;3.05;;;1.90;;
26113;SDS011;13966;48.828;9.064;2023-06-10T12:54:49;1.63;;;1.52;;
26113;SDS011;13966;48.828;9.064;2023-06-10T12:57:16;3.55;;;1.80;;
26113;SDS011;13966;48.828;9.064;2023-06-10T12:59:42;2.13;;;1.73;;
26113;SDS011;13966;48.828;9.064;2023-06-10T13:02:15;2.97;;;2.10;;
26113;SDS011;13966;48.828;9.064;2023-06-10T13:04:43;1.90;;;1.75;;
26113;SDS011;13966;48.828;9.064;2023-06-10T13:07:09;2.83;;;2.33;;
26113;SDS011;13966;48.828;9.064;2023-06-10T13:09:35;3.30;;;2.65;;
26113;SDS011;13966;48.828;9.064;2023-06-10T13:12:02;2.63;;;1.63;;
26113;SDS011;13966;48.828;9.064;2023-06-10T13:14:28;1.60;;;1.50;;
26113;SDS011;13966;48.828;9.064;2023-06-10T13:16:54;1.88;;;1.50;;
26113;SDS011;13966;48.828;9.064;2023-06-10T13:19:21;3.45;;;1.80;;
26113;SDS011;13966;48.828;9.064;2023-06-10T13:21:47;1.95;;;1.30;;
26113;SDS011;13966;48.828;9.064;2023-06-10T13:24:13;2.53;;;1.40;;
26113;SDS011;13966;48.828;9.064;2023-06-10T13:26:39;1.95;;;1.23;;
26113;SDS011;13966;48.828;9.064;2023-06-10T13:29:05;4.50;;;1.70;;
26113;SDS011;13966;48.828;9.064;2023-06-10T13:31:33;1.67;;;1.58;;
26113;SDS011;13966;48.828;9.064;2023-06-10T13:33:59;2.15;;;1.35;;
26113;SDS011;13966;48.828;9.064;2023-06-10T13:36:25;3.00;;;1.50;;
26113;SDS011;13966;48.828;9.064;2023-06-10T13:38:51;1.70;;;1.60;;
26113;SDS011;13966;48.828;9.064;2023-06-10T13:41:17;4.53;;;1.90;;
26113;SDS011;13966;48.828;9.064;2023-06-10T13:43:43;2.85;;;1.50;;
26113;SDS011;13966;48.828;9.064;2023-06-10T13:46:09;2.38;;;2.10;;
26113;SDS011;13966;48.828;9.064;2023-06-10T13:48:35;3.88;;;2.80;;
26113;SDS011;13966;48.828;9.064;2023-06-10T13:51:01;3.65;;;2.20;;
26113;SDS011;13966;48.828;9.064;2023-06-10T13:53:27;2.78;;;2.55;;
26113;SDS011;13966;48.828;9.064;2023-06-10T13:55:53;3.50;;;2.88;;
26113;SDS011;13966;48.828;9.064;2023-06-10T13:58:19;2.00;;;1.90;;
26113;SDS011;13966;48.828;9.064;2023-06-10T14:00:45;2.15;;;1.80;;
26113;SDS011;13966;48.828;9.064;2023-06-10T14:03:12;1.85;;;1.73;;
26113;SDS011;13966;48.828;9.064;2023-06-10T14:05:38;2.22;;;1.40;;
26113;SDS011;13966;48.828;9.064;2023-06-10T14:08:04;1.40;;;1.30;;
26113;SDS011;13966;48.828;9.064;2023-06-10T14:10:30;2.40;;;1.70;;
26113;SDS011;13966;48.828;9.064;2023-06-10T14:12:56;3.55;;;1.85;;
26113;SDS011;13966;48.828;9.064;2023-06-10T14:15:22;1.65;;;1.30;;
26113;SDS011;13966;48.828;9.064;2023-06-10T14:17:48;2.42;;;1.50;;
26113;SDS011;13966;48.828;9.064;2023-06-10T14:20:14;2.58;;;1.40;;
26113;SDS011;13966;48.828;9.064;2023-06-10T14:22:41;1.50;;;1.40;;
26113;SDS011;13966;48.828;9.064;2023-06-10T14:25:07;5.30;;;1.60;;
26113;SDS011;13966;48.828;9.064;2023-06-10T14:27:33;3.00;;;1.40;;
26113;SDS011;13966;48.828;9.064;2023-06-10T14:29:59;1.65;;;1.30;;
26113;SDS011;13966;48.828;9.064;2023-06-10T14:32:25;1.60;;;1.30;;
26113;SDS011;13966;48.828;9.064;2023-06-10T14:34:51;1.48;;;1.10;;
26113;SDS011;13966;48.828;9.064;2023-06-10T14:37:17;1.45;;;1.17;;
26113;SDS011;13966;48.828;9.064;2023-06-10T14:39:43;2.15;;;1.10;;
26113;SDS011;13966;48.828;9.064;2023-06-10T14:42:09;1.27;;;1.15;;
26113;SDS011;13966;48.828;9.064;2023-06-10T14:44:35;1.30;;;1.20;;
26113;SDS011;13966;48.828;9.064;2023-06-10T14:47:01;3.25;;;1.25;;
26113;SDS011;13966;48.828;9.064;2023-06-10T14:49:27;1.90;;;1.20;;
26113;SDS011;13966;48.828;9.064;2023-06-10T14:51:53;2.00;;;1.20;;
26113;SDS011;13966;48.828;9.064;2023-06-10T14:54:20;1.88;;;1.50;;
26113;SDS011;13966;48.828;9.064;2023-06-10T14:56:46;2.15;;;1.95;;
26113;SDS011;13966;48.828;9.064;2023-06-10T14:59:12;2.88;;;2.20;;
26113;SDS011;13966;48.828;9.064;2023-06-10T15:01:39;1.70;;;1.25;;